createdAt,value
2018-03-11T00:00:57.740Z,3.30
2018-03-11T00:03:24.063Z,3.03
2018-03-11T00:05:50.385Z,3.50
2018-03-11T00:08:17.034Z,3.43
2018-03-11T00:10:43.424Z,3.40
2018-03-11T00:13:09.775Z,3.33
2018-03-11T00:15:36.104Z,3.83
2018-03-11T00:18:02.615Z,3.10
2018-03-11T00:20:28.947Z,3.13
2018-03-11T00:22:55.327Z,3.03
2018-03-11T00:25:21.768Z,3.17
2018-03-11T00:27:48.138Z,3.43
2018-03-11T00:30:14.467Z,2.90
2018-03-11T00:32:40.970Z,2.97
2018-03-11T00:35:07.326Z,2.87
2018-03-11T00:37:33.740Z,2.80
2018-03-11T00:40:00.122Z,2.53
2018-03-11T00:42:26.569Z,3.07
2018-03-11T00:44:52.873Z,3.43
2018-03-11T00:47:19.271Z,2.83
2018-03-11T00:49:45.589Z,3.20
2018-03-11T00:52:11.970Z,2.90
2018-03-11T00:54:38.290Z,3.20
2018-03-11T00:57:04.627Z,3.00
2018-03-11T00:59:30.970Z,3.43
2018-03-11T01:01:57.377Z,2.87
2018-03-11T01:04:23.715Z,3.30
2018-03-11T01:06:50.196Z,4.90
2018-03-11T01:09:16.542Z,4.37
2018-03-11T01:11:42.880Z,4.20
2018-03-11T01:14:09.387Z,3.50
2018-03-11T01:16:35.734Z,3.23
2018-03-11T01:19:02.151Z,3.10
2018-03-11T01:21:28.482Z,3.73
2018-03-11T01:23:54.953Z,4.33
2018-03-11T01:26:21.288Z,3.60
2018-03-11T01:28:47.611Z,2.83
2018-03-11T01:31:14.091Z,3.23
2018-03-11T01:33:40.470Z,2.93
2018-03-11T01:36:06.852Z,3.63
2018-03-11T01:38:33.238Z,3.20
2018-03-11T01:40:59.713Z,2.87
2018-03-11T01:43:26.117Z,3.30
2018-03-11T01:45:52.472Z,3.50
2018-03-11T01:48:18.806Z,3.40
2018-03-11T01:50:45.126Z,3.57
2018-03-11T01:53:11.717Z,3.10
2018-03-11T01:55:38.212Z,3.33
2018-03-11T01:58:04.605Z,3.00
2018-03-11T02:00:30.981Z,3.40
2018-03-11T02:02:57.360Z,3.93
2018-03-11T02:05:23.701Z,3.30
2018-03-11T02:07:50.034Z,3.13
2018-03-11T02:10:16.401Z,3.17
2018-03-11T02:12:42.790Z,2.97
2018-03-11T02:15:09.166Z,3.67
2018-03-11T02:17:35.475Z,2.90
2018-03-11T02:20:01.800Z,3.30
2018-03-11T02:22:28.264Z,3.07
2018-03-11T02:24:54.581Z,3.33
2018-03-11T02:27:20.917Z,3.40
2018-03-11T02:29:47.382Z,3.27
2018-03-11T02:32:13.772Z,3.23
2018-03-11T02:34:40.090Z,3.27
2018-03-11T02:37:06.506Z,3.63
2018-03-11T02:39:32.872Z,3.33
2018-03-11T02:41:59.282Z,3.57
2018-03-11T02:44:25.675Z,3.40
2018-03-11T02:46:52.015Z,3.80
2018-03-11T02:49:18.328Z,4.30
2018-03-11T02:51:44.813Z,3.93
2018-03-11T02:54:11.129Z,4.00
2018-03-11T02:56:37.444Z,4.10
2018-03-11T02:59:03.843Z,3.93
2018-03-11T03:01:30.237Z,4.27
2018-03-11T03:03:56.565Z,3.60
2018-03-11T03:06:22.847Z,3.33
2018-03-11T03:08:49.188Z,3.23
2018-03-11T03:11:15.557Z,4.07
2018-03-11T03:13:41.962Z,4.17
2018-03-11T03:16:08.290Z,3.30
2018-03-11T03:18:34.633Z,3.03
2018-03-11T03:21:01.027Z,3.10
2018-03-11T03:23:27.420Z,3.10
2018-03-11T03:25:53.773Z,2.73
2018-03-11T03:28:20.108Z,3.80
2018-03-11T03:30:46.553Z,3.17
2018-03-11T03:33:12.984Z,3.50
2018-03-11T03:35:39.324Z,3.10
2018-03-11T03:38:05.691Z,3.33
2018-03-11T03:40:32.006Z,4.00
2018-03-11T03:42:58.420Z,3.37
2018-03-11T03:45:24.770Z,3.40
2018-03-11T03:47:51.065Z,3.50
2018-03-11T03:50:17.503Z,3.63
2018-03-11T03:52:43.923Z,3.10
2018-03-11T03:55:10.215Z,3.70
2018-03-11T03:57:36.532Z,3.60
2018-03-11T04:00:02.912Z,3.60
2018-03-11T04:02:29.349Z,3.60
2018-03-11T04:04:55.757Z,3.23
2018-03-11T04:07:22.081Z,4.10
2018-03-11T04:09:48.372Z,3.43
2018-03-11T04:12:14.949Z,3.63
2018-03-11T04:14:41.260Z,3.43
2018-03-11T04:17:07.548Z,3.23
2018-03-11T04:19:33.910Z,3.93
2018-03-11T04:22:00.322Z,3.70
2018-03-11T04:24:26.707Z,4.03
2018-03-11T04:26:53.103Z,4.17
2018-03-11T04:29:19.424Z,3.80
2018-03-11T04:31:46.051Z,4.37
2018-03-11T04:34:12.479Z,3.50
2018-03-11T04:36:38.811Z,3.57
2018-03-11T04:39:05.217Z,3.67
2018-03-11T04:41:31.595Z,3.80
2018-03-11T04:43:57.987Z,3.13
2018-03-11T04:46:24.300Z,3.90
2018-03-11T04:48:50.643Z,3.90
2018-03-11T04:51:17.018Z,3.33
2018-03-11T04:53:43.502Z,3.60
2018-03-11T04:56:10.035Z,3.30
2018-03-11T04:58:36.338Z,3.23
2018-03-11T05:01:03.010Z,2.60
2018-03-11T05:03:29.452Z,3.23
2018-03-11T05:05:55.785Z,3.07
2018-03-11T05:08:22.152Z,3.77
2018-03-11T05:10:48.491Z,3.63
2018-03-11T05:13:15.020Z,4.10
2018-03-11T05:15:41.345Z,5.23
2018-03-11T05:18:07.727Z,2.90
2018-03-11T05:20:34.038Z,3.60
2018-03-11T05:23:00.532Z,3.60
2018-03-11T05:25:26.916Z,3.43
2018-03-11T05:27:53.228Z,3.70
2018-03-11T05:30:19.613Z,4.37
2018-03-11T05:32:46.012Z,6.23
2018-03-11T05:35:12.336Z,6.83
2018-03-11T05:37:38.672Z,6.03
2018-03-11T05:40:05.114Z,3.53
2018-03-11T05:42:31.557Z,6.87
2018-03-11T05:44:57.870Z,7.10
2018-03-11T05:47:24.244Z,4.90
2018-03-11T05:49:50.608Z,7.37
2018-03-11T05:52:17.101Z,5.63
2018-03-11T05:54:43.525Z,7.33
2018-03-11T05:57:09.818Z,5.00
2018-03-11T05:59:36.317Z,3.87
2018-03-11T06:02:03.759Z,4.63
2018-03-11T06:04:30.086Z,4.03
2018-03-11T06:06:56.558Z,3.60
2018-03-11T06:09:23.108Z,8.83
2018-03-11T06:11:50.001Z,7.67
2018-03-11T06:14:33.937Z,6.03
2018-03-11T06:17:00.265Z,7.27
2018-03-11T06:19:26.646Z,7.60
2018-03-11T06:21:53.089Z,8.33
2018-03-11T06:24:19.532Z,8.43
2018-03-11T06:26:45.850Z,10.37
2018-03-11T06:29:12.230Z,8.97
2018-03-11T06:31:38.543Z,11.13
2018-03-11T06:34:05.346Z,5.80
2018-03-11T06:36:31.728Z,4.87
2018-03-11T06:38:58.174Z,8.43
2018-03-11T06:41:24.957Z,7.60
2018-03-11T06:43:51.658Z,7.70
2018-03-11T06:46:18.153Z,8.00
2018-03-11T06:48:44.483Z,6.80
2018-03-11T06:51:10.854Z,6.33
2018-03-11T06:53:37.516Z,14.50
2018-03-11T06:56:03.878Z,8.63
2018-03-11T06:58:30.268Z,8.20
2018-03-11T07:00:56.664Z,5.97
2018-03-11T07:03:23.152Z,5.03
2018-03-11T07:05:49.648Z,5.20
2018-03-11T07:08:16.298Z,5.33
2018-03-11T07:10:42.617Z,5.87
2018-03-11T07:13:09.065Z,4.70
2018-03-11T07:15:35.785Z,6.40
2018-03-11T07:18:02.310Z,5.43
2018-03-11T07:20:28.789Z,5.20
2018-03-11T07:22:55.111Z,5.17
2018-03-11T07:25:21.436Z,6.03
2018-03-11T07:27:47.911Z,5.30
2018-03-11T07:30:14.318Z,5.73
2018-03-11T07:32:40.840Z,5.73
2018-03-11T07:35:07.225Z,9.47
2018-03-11T07:37:33.552Z,6.43
2018-03-11T07:39:59.925Z,5.20
2018-03-11T07:42:26.354Z,7.57
2018-03-11T07:44:52.713Z,5.27
2018-03-11T07:47:19.084Z,5.43
2018-03-11T07:49:45.906Z,4.70
2018-03-11T07:52:12.231Z,5.30
2018-03-11T07:54:38.634Z,9.00
2018-03-11T07:57:05.222Z,8.67
2018-03-11T07:59:31.666Z,4.80
2018-03-11T08:01:58.071Z,6.53
2018-03-11T08:04:24.683Z,5.30
2018-03-11T08:06:51.005Z,5.03
2018-03-11T08:09:17.445Z,4.77
2018-03-11T08:11:44.005Z,5.43
2018-03-11T08:14:10.436Z,5.00
2018-03-11T08:16:36.892Z,5.07
2018-03-11T08:19:03.246Z,5.50
2018-03-11T08:21:29.608Z,5.90
2018-03-11T08:23:56.162Z,5.97
2018-03-11T08:26:22.946Z,5.70
2018-03-11T08:28:49.745Z,6.27
2018-03-11T08:31:16.164Z,5.33
2018-03-11T08:33:42.973Z,6.07
2018-03-11T08:36:09.403Z,5.30
2018-03-11T08:38:35.719Z,4.77
2018-03-11T08:41:02.052Z,4.67
2018-03-11T08:43:28.420Z,4.80
2018-03-11T08:45:54.888Z,4.70
2018-03-11T08:48:21.546Z,4.90
2018-03-11T08:50:47.931Z,4.53
2018-03-11T08:53:14.424Z,3.47
2018-03-11T08:55:40.817Z,4.07
2018-03-11T08:58:07.346Z,2.70
2018-03-11T09:00:33.756Z,4.47
2018-03-11T09:03:00.204Z,3.60
2018-03-11T09:05:26.577Z,3.20
2018-03-11T09:07:52.914Z,3.60
2018-03-11T09:10:19.319Z,4.83
2018-03-11T09:12:45.842Z,4.33
2018-03-11T09:15:12.194Z,3.73
2018-03-11T09:17:38.648Z,3.47
2018-03-11T09:20:05.061Z,3.60
2018-03-11T09:22:31.434Z,4.00
2018-03-11T09:24:57.810Z,5.20
2018-03-11T09:27:24.246Z,6.53
2018-03-11T09:29:50.600Z,15.30
2018-03-11T09:32:16.921Z,6.70
2018-03-11T09:34:43.398Z,5.07
2018-03-11T09:37:09.862Z,4.70
2018-03-11T09:39:36.218Z,3.97
2018-03-11T09:42:02.649Z,3.13
2018-03-11T09:44:29.309Z,3.43
2018-03-11T09:46:55.776Z,3.53
2018-03-11T09:49:22.228Z,3.77
2018-03-11T09:51:48.809Z,4.43
2018-03-11T09:54:15.518Z,3.73
2018-03-11T09:56:41.995Z,3.90
2018-03-11T09:59:08.407Z,3.30
2018-03-11T10:01:34.764Z,3.43
2018-03-11T10:04:01.844Z,3.60
2018-03-11T10:06:28.589Z,3.00
2018-03-11T10:08:55.095Z,3.50
2018-03-11T10:11:21.534Z,3.40
2018-03-11T10:13:47.955Z,3.07
2018-03-11T10:16:14.925Z,3.33
2018-03-11T10:18:41.890Z,3.17
2018-03-11T10:21:08.553Z,2.67
2018-03-11T10:23:35.158Z,3.33
2018-03-11T10:26:01.660Z,3.37
2018-03-11T10:28:28.455Z,3.00
2018-03-11T10:30:55.291Z,3.10
2018-03-11T10:33:22.006Z,2.70
2018-03-11T10:35:48.590Z,3.57
2018-03-11T10:38:15.265Z,3.43
2018-03-11T10:40:41.890Z,3.10
2018-03-11T10:43:09.112Z,3.10
2018-03-11T10:45:35.691Z,3.03
2018-03-11T10:48:02.218Z,3.57
2018-03-11T10:50:28.730Z,3.37
2018-03-11T10:52:55.703Z,3.13
2018-03-11T10:55:22.653Z,3.30
2018-03-11T10:57:49.053Z,3.70
2018-03-11T11:00:16.320Z,2.83
2018-03-11T11:02:42.800Z,3.37
2018-03-11T11:05:09.349Z,2.83
2018-03-11T11:07:35.791Z,2.57
2018-03-11T11:10:02.265Z,3.20
2018-03-11T11:12:28.851Z,2.80
2018-03-11T11:14:55.514Z,3.10
2018-03-11T11:17:21.984Z,3.10
2018-03-11T11:19:48.433Z,2.73
2018-03-11T11:22:14.807Z,13.20
2018-03-11T11:24:41.797Z,3.03
2018-03-11T11:27:08.231Z,2.70
2018-03-11T11:29:34.639Z,3.40
2018-03-11T11:32:01.047Z,2.70
2018-03-11T11:34:27.548Z,3.20
2018-03-11T11:36:53.907Z,3.00
2018-03-11T11:39:21.083Z,2.90
2018-03-11T11:41:47.902Z,3.07
2018-03-11T11:44:14.420Z,2.47
2018-03-11T11:46:40.873Z,2.70
2018-03-11T11:49:07.338Z,2.87
2018-03-11T11:51:33.849Z,2.57
2018-03-11T11:54:00.667Z,2.90
2018-03-11T11:56:27.458Z,2.40
2018-03-11T11:58:54.023Z,2.60
2018-03-11T12:01:20.527Z,2.40
2018-03-11T12:03:47.252Z,2.63
2018-03-11T12:06:13.837Z,4.27
2018-03-11T12:08:40.413Z,2.90
2018-03-11T12:11:06.899Z,2.60
2018-03-11T12:13:33.513Z,3.30
2018-03-11T12:16:00.063Z,7.57
2018-03-11T12:18:26.494Z,5.67
2018-03-11T12:20:53.112Z,2.50
2018-03-11T12:23:19.881Z,2.53
2018-03-11T12:25:46.726Z,2.40
2018-03-11T12:28:13.924Z,2.50
2018-03-11T12:30:40.572Z,2.37
2018-03-11T12:33:07.039Z,2.60
2018-03-11T12:35:33.903Z,1.93
2018-03-11T12:38:00.923Z,2.30
2018-03-11T12:40:27.966Z,2.33
2018-03-11T12:42:54.744Z,2.40
2018-03-11T12:45:21.237Z,2.00
2018-03-11T12:47:48.137Z,1.70
2018-03-11T12:50:14.557Z,1.80
2018-03-11T12:52:41.256Z,2.00
2018-03-11T12:55:07.969Z,1.87
2018-03-11T12:57:34.380Z,2.17
2018-03-11T13:00:00.864Z,1.93
2018-03-11T13:02:27.467Z,1.90
2018-03-11T13:04:54.107Z,1.90
2018-03-11T13:07:20.589Z,1.60
2018-03-11T13:09:47.112Z,2.57
2018-03-11T13:12:13.753Z,1.80
2018-03-11T13:14:40.306Z,1.90
2018-03-11T13:17:06.692Z,1.93
2018-03-11T13:19:33.523Z,2.80
2018-03-11T13:22:00.095Z,2.00
2018-03-11T13:24:27.975Z,2.50
2018-03-11T13:26:54.607Z,4.70
2018-03-11T13:29:21.881Z,2.23
2018-03-11T13:31:48.518Z,2.07
2018-03-11T13:34:26.391Z,1.70
2018-03-11T13:36:52.953Z,3.40
2018-03-11T13:39:32.069Z,7.67
2018-03-11T13:41:58.940Z,1.90
2018-03-11T13:44:25.523Z,11.87
2018-03-11T13:47:10.939Z,2.03
2018-03-11T13:49:37.603Z,1.70
2018-03-11T13:52:16.294Z,1.70
2018-03-11T13:54:42.919Z,1.97
2018-03-11T14:00:06.319Z,2.47
2018-03-11T14:02:33.148Z,3.57
2018-03-11T14:04:59.908Z,1.80
2018-03-11T14:07:26.390Z,2.13
2018-03-11T14:09:52.843Z,2.53
2018-03-11T14:12:19.410Z,1.97
2018-03-11T14:14:45.991Z,1.70
2018-03-11T14:17:12.584Z,1.87
2018-03-11T14:19:39.054Z,2.00
2018-03-11T14:22:06.564Z,2.00
2018-03-11T14:24:33.793Z,2.40
2018-03-11T14:27:02.414Z,2.40
2018-03-11T14:29:29.280Z,1.90
2018-03-11T14:31:55.715Z,1.77
2018-03-11T14:34:22.147Z,1.57
2018-03-11T14:36:48.578Z,2.43
2018-03-11T14:39:15.095Z,1.73
2018-03-11T14:41:41.827Z,2.00
2018-03-11T14:44:08.264Z,1.93
2018-03-11T14:46:34.743Z,2.23
2018-03-11T14:49:01.134Z,2.20
2018-03-11T14:51:27.785Z,2.00
2018-03-11T14:53:54.447Z,2.37
2018-03-11T14:56:21.029Z,2.20
2018-03-11T14:58:47.505Z,1.93
2018-03-11T15:01:13.988Z,2.43
2018-03-11T15:03:40.659Z,2.20
2018-03-11T15:06:07.171Z,2.10
2018-03-11T15:08:33.642Z,1.70
2018-03-11T15:11:01.389Z,2.00
2018-03-11T15:13:27.988Z,2.10
2018-03-11T15:15:54.358Z,2.10
2018-03-11T15:18:20.765Z,2.17
2018-03-11T15:20:47.641Z,2.13
2018-03-11T15:23:14.305Z,1.50
2018-03-11T15:25:40.774Z,2.20
2018-03-11T15:28:07.251Z,1.70
2018-03-11T15:30:33.701Z,2.13
2018-03-11T15:33:00.277Z,1.50
2018-03-11T15:35:26.954Z,1.80
2018-03-11T15:37:53.427Z,2.13
2018-03-11T15:40:19.759Z,1.90
2018-03-11T15:42:46.128Z,2.50
2018-03-11T15:45:12.639Z,2.73
2018-03-11T15:47:39.080Z,1.70
2018-03-11T15:50:05.623Z,1.83
2018-03-11T15:52:32.069Z,2.67
2018-03-11T15:54:58.810Z,2.03
2018-03-11T15:57:25.208Z,1.90
2018-03-11T15:59:51.650Z,2.50
2018-03-11T16:02:18.194Z,2.17
2018-03-11T16:04:44.723Z,1.80
2018-03-11T16:07:11.642Z,2.30
2018-03-11T16:09:38.267Z,2.70
2018-03-11T16:12:04.945Z,2.77
2018-03-11T16:14:31.516Z,2.70
2018-03-11T16:16:58.070Z,2.83
2018-03-11T16:19:25.015Z,2.90
2018-03-11T16:21:51.894Z,3.00
2018-03-11T16:24:28.381Z,2.80
2018-03-11T16:26:44.859Z,2.60
2018-03-11T16:29:11.261Z,2.43
2018-03-11T16:31:37.714Z,2.57
2018-03-11T16:34:04.170Z,3.03
2018-03-11T16:36:30.703Z,3.00
2018-03-11T16:38:57.056Z,2.40
2018-03-11T16:41:23.431Z,2.73
2018-03-11T16:43:49.978Z,2.47
2018-03-11T16:46:16.435Z,2.73
2018-03-11T16:48:43.001Z,2.60
2018-03-11T16:51:09.879Z,2.63
2018-03-11T16:53:36.533Z,2.93
2018-03-11T16:56:03.351Z,2.77
2018-03-11T16:58:29.934Z,2.00
2018-03-11T17:00:56.314Z,2.33
2018-03-11T17:03:22.668Z,2.40
2018-03-11T17:05:49.260Z,2.37
2018-03-11T17:08:15.672Z,2.03
2018-03-11T17:10:42.039Z,2.50
2018-03-11T17:13:08.806Z,2.60
2018-03-11T17:15:35.347Z,2.90
2018-03-11T17:18:01.851Z,2.57
2018-03-11T17:20:28.591Z,2.63
2018-03-11T17:22:55.388Z,1.90
2018-03-11T17:25:22.076Z,2.30
2018-03-11T17:27:48.812Z,2.60
2018-03-11T17:30:15.470Z,2.23
2018-03-11T17:32:41.993Z,2.33
2018-03-11T17:35:08.639Z,2.10
2018-03-11T17:37:35.129Z,2.47
2018-03-11T17:40:01.599Z,2.20
2018-03-11T17:42:29.089Z,2.53
2018-03-11T17:44:55.792Z,2.10
2018-03-11T17:47:22.605Z,2.27
2018-03-11T17:49:49.151Z,2.20
2018-03-11T17:52:16.008Z,2.13
2018-03-11T17:54:42.948Z,2.20
2018-03-11T17:57:09.585Z,2.30
2018-03-11T17:59:36.372Z,2.27
2018-03-11T18:02:03.233Z,2.40
2018-03-11T18:04:30.088Z,2.10
2018-03-11T18:06:56.783Z,2.37
2018-03-11T18:09:23.439Z,2.27
2018-03-11T18:11:50.227Z,2.47
2018-03-11T18:14:19.205Z,2.20
2018-03-11T18:16:45.980Z,2.10
2018-03-11T18:19:12.806Z,2.10
2018-03-11T18:21:39.552Z,2.40
2018-03-11T18:24:06.445Z,2.10
2018-03-11T18:26:33.185Z,2.23
2018-03-11T18:29:00.120Z,2.50
2018-03-11T18:31:26.761Z,1.93
2018-03-11T18:33:53.593Z,2.40
2018-03-11T18:36:20.276Z,2.50
2018-03-11T18:38:46.967Z,2.10
2018-03-11T18:41:13.703Z,2.30
2018-03-11T18:43:40.358Z,2.47
2018-03-11T18:46:06.912Z,2.20
2018-03-11T18:48:33.826Z,2.00
2018-03-11T18:51:01.023Z,1.87
2018-03-11T18:53:28.068Z,2.30
2018-03-11T18:55:54.971Z,1.90
2018-03-11T18:58:22.505Z,2.30
2018-03-11T19:00:49.319Z,2.37
2018-03-11T19:03:16.032Z,2.70
2018-03-11T19:05:43.017Z,2.10
2018-03-11T19:08:10.005Z,2.33
2018-03-11T19:10:36.818Z,2.77
2018-03-11T19:13:03.663Z,2.10
2018-03-11T19:15:30.558Z,2.17
2018-03-11T19:17:57.779Z,2.80
2018-03-11T19:20:24.533Z,2.73
2018-03-11T19:22:51.280Z,2.57
2018-03-11T19:25:18.150Z,2.20
2018-03-11T19:27:45.051Z,2.57
2018-03-11T19:30:11.832Z,1.93
2018-03-11T19:32:38.847Z,2.40
2018-03-11T19:35:05.996Z,2.00
2018-03-11T19:37:32.666Z,2.50
2018-03-11T19:39:59.684Z,2.20
2018-03-11T19:42:26.599Z,2.30
2018-03-11T19:44:53.415Z,2.63
2018-03-11T19:47:20.118Z,2.53
2018-03-11T19:49:47.037Z,2.10
2018-03-11T19:52:13.904Z,2.80
2018-03-11T19:54:40.707Z,2.23
2018-03-11T19:57:07.699Z,2.10
2018-03-11T19:59:34.914Z,2.13
2018-03-11T20:02:02.326Z,2.70
2018-03-11T20:04:29.145Z,2.37
2018-03-11T20:06:56.346Z,2.47
2018-03-11T20:09:22.975Z,2.30
2018-03-11T20:11:49.745Z,2.37
2018-03-11T20:14:16.576Z,2.17
2018-03-11T20:16:44.300Z,2.00
2018-03-11T20:19:11.128Z,2.17
2018-03-11T20:21:37.821Z,2.43
2018-03-11T20:24:04.713Z,2.10
2018-03-11T20:26:31.343Z,2.10
2018-03-11T20:28:57.999Z,2.20
2018-03-11T20:31:24.596Z,2.13
2018-03-11T20:33:51.158Z,2.60
2018-03-11T20:36:17.916Z,2.67
2018-03-11T20:38:44.450Z,3.33
2018-03-11T20:41:10.941Z,3.00
2018-03-11T20:43:37.456Z,3.03
2018-03-11T20:46:04.053Z,2.80
2018-03-11T20:48:30.660Z,2.83
2018-03-11T20:50:57.128Z,3.53
2018-03-11T20:53:24.102Z,2.73
2018-03-11T20:55:51.216Z,2.30
2018-03-11T20:58:17.697Z,2.30
2018-03-11T21:00:44.645Z,2.40
2018-03-11T21:03:11.137Z,2.33
2018-03-11T21:05:37.943Z,2.90
2018-03-11T21:08:04.472Z,2.37
2018-03-11T21:10:31.032Z,2.67
2018-03-11T21:12:57.519Z,2.80
2018-03-11T21:15:24.391Z,3.47
2018-03-11T21:17:51.006Z,3.70
2018-03-11T21:20:17.790Z,3.40
2018-03-11T21:22:44.301Z,3.23
2018-03-11T21:25:11.977Z,3.50
2018-03-11T21:27:39.376Z,3.30
2018-03-11T21:30:06.251Z,3.83
2018-03-11T21:32:33.870Z,3.47
2018-03-11T21:35:00.974Z,2.90
2018-03-11T21:37:27.844Z,3.00
2018-03-11T21:39:55.003Z,3.37
2018-03-11T21:42:21.491Z,2.67
2018-03-11T21:44:48.513Z,2.97
2018-03-11T21:47:14.997Z,4.03
2018-03-11T21:49:41.477Z,3.37
2018-03-11T21:52:07.899Z,3.00
2018-03-11T21:54:34.728Z,3.13
2018-03-11T21:57:01.154Z,3.23
2018-03-11T21:59:27.574Z,3.10
2018-03-11T22:01:53.987Z,3.23
2018-03-11T22:04:20.430Z,3.37
2018-03-11T22:06:46.784Z,2.83
2018-03-11T22:09:13.321Z,3.13
2018-03-11T22:11:39.723Z,3.53
2018-03-11T22:14:06.123Z,3.80
2018-03-11T22:16:32.502Z,3.27
2018-03-11T22:18:58.926Z,3.77
2018-03-11T22:21:25.250Z,3.37
2018-03-11T22:23:52.257Z,3.97
2018-03-11T22:26:18.679Z,3.50
2018-03-11T22:28:45.046Z,4.23
2018-03-11T22:31:11.452Z,3.47
2018-03-11T22:33:37.835Z,4.17
2018-03-11T22:36:04.363Z,4.23
2018-03-11T22:38:31.079Z,3.80
2018-03-11T22:40:57.400Z,3.67
2018-03-11T22:43:23.761Z,3.53
2018-03-11T22:45:50.166Z,3.70
2018-03-11T22:48:16.813Z,3.30
2018-03-11T22:50:43.263Z,3.23
2018-03-11T22:53:09.594Z,3.63
2018-03-11T22:55:35.972Z,3.30
2018-03-11T22:58:02.656Z,4.00
2018-03-11T23:00:29.078Z,3.43
2018-03-11T23:02:55.525Z,3.47
2018-03-11T23:05:22.097Z,3.60
2018-03-11T23:07:48.927Z,2.97
2018-03-11T23:10:15.423Z,3.70
2018-03-11T23:12:41.809Z,3.57
2018-03-11T23:15:08.318Z,2.93
2018-03-11T23:17:34.953Z,4.23
2018-03-11T23:20:01.631Z,4.17
2018-03-11T23:22:28.123Z,3.40
2018-03-11T23:24:54.535Z,3.33
2018-03-11T23:27:20.903Z,4.23
2018-03-11T23:29:47.385Z,3.93
2018-03-11T23:32:13.760Z,3.70
2018-03-11T23:34:40.162Z,4.13
2018-03-11T23:37:06.576Z,4.23
2018-03-11T23:39:32.928Z,4.00
2018-03-11T23:41:59.257Z,3.70
2018-03-11T23:44:25.754Z,4.10
2018-03-11T23:46:52.120Z,4.10
2018-03-11T23:49:18.437Z,3.57
2018-03-11T23:51:44.810Z,4.40
2018-03-11T23:54:11.105Z,3.70
2018-03-11T23:56:37.552Z,3.70
2018-03-11T23:59:03.930Z,3.53
